Time;durP1;ratioP1;P1;durP2;ratioP2;P2;SDS_P1;SDS_P2;PMS_P1;PMS_P2;Temp;Humidity;BMP_temperature;BMP_pressure;BME280_temperature;BME280_humidity;BME280_pressure;Samples;Min_cycle;Max_cycle;Signal;HPM_P1;HPM_P2
2022/04/12 00:00:40;;;;;;;7.40;2.20;;;5.70;95.00;;;;;;5002691;28;20179;-64
2022/04/12 00:03:07;;;;;;;3.07;1.73;;;5.70;94.90;;;;;;5008260;28;20438;-65
2022/04/12 00:05:33;;;;;;;3.60;1.80;;;5.60;95.10;;;;;;5008550;28;20822;-66
2022/04/12 00:08:00;;;;;;;3.30;1.70;;;5.60;95.40;;;;;;5008015;28;20441;-64
2022/04/12 00:10:27;;;;;;;3.67;1.60;;;5.50;95.60;;;;;;5007364;28;20531;-63
2022/04/12 00:12:53;;;;;;;4.13;1.70;;;5.50;95.50;;;;;;5008023;28;20480;-65
2022/04/12 00:15:19;;;;;;;4.13;1.90;;;5.50;95.20;;;;;;5015877;28;20458;-65
2022/04/12 00:20:29;;;;;;;4.03;1.90;;;5.30;95.90;;;;;;5007301;28;20229;-65
2022/04/12 00:22:55;;;;;;;3.30;1.90;;;5.30;96.20;;;;;;5007020;28;20441;-64
2022/04/12 00:25:22;;;;;;;4.70;2.10;;;5.30;96.20;;;;;;5007449;28;20715;-66
2022/04/12 00:27:49;;;;;;;4.50;2.13;;;5.20;96.20;;;;;;5007667;28;20438;-66
2022/04/12 00:30:16;;;;;;;2.83;1.70;;;5.20;96.40;;;;;;4994829;28;20429;-66
2022/04/12 00:32:42;;;;;;;6.03;2.10;;;5.10;96.30;;;;;;5007373;28;20584;-65
2022/04/12 00:35:08;;;;;;;5.30;1.57;;;5.10;96.30;;;;;;5009142;28;20540;-66
2022/04/12 00:37:34;;;;;;;3.87;2.03;;;5.20;96.40;;;;;;5006880;28;20207;-65
2022/04/12 00:40:00;;;;;;;5.53;2.30;;;5.10;96.50;;;;;;5007078;28;20445;-64
2022/04/12 00:42:26;;;;;;;3.07;1.63;;;5.10;96.50;;;;;;5007267;28;20446;-62
2022/04/12 00:44:52;;;;;;;3.67;1.63;;;5.00;96.40;;;;;;5023519;28;21291;-66
2022/04/12 00:47:18;;;;;;;2.90;1.60;;;5.00;96.30;;;;;;5006993;28;20218;-65
2022/04/12 00:49:44;;;;;;;9.43;2.80;;;4.90;96.70;;;;;;5006705;28;20511;-65
2022/04/12 00:52:10;;;;;;;2.70;1.40;;;4.90;97.00;;;;;;5006673;28;20264;-65
2022/04/12 00:54:38;;;;;;;3.53;1.87;;;4.90;97.00;;;;;;5014971;28;20298;-64
2022/04/12 00:57:05;;;;;;;3.50;1.60;;;4.80;97.30;;;;;;5008140;28;20469;-64
2022/04/12 00:59:31;;;;;;;5.97;2.23;;;4.80;97.60;;;;;;5006901;28;20429;-67
2022/04/12 01:01:58;;;;;;;3.07;1.50;;;4.80;97.80;;;;;;5007148;28;21062;-65
2022/04/12 01:04:24;;;;;;;3.00;1.63;;;4.90;98.00;;;;;;5007325;28;20891;-65
2022/04/12 01:06:50;;;;;;;5.03;2.03;;;4.80;97.70;;;;;;5006926;28;20481;-66
2022/04/12 01:09:16;;;;;;;4.43;1.80;;;4.80;97.90;;;;;;5006178;28;20686;-65
2022/04/12 01:11:47;;;;;;;3.67;2.10;;;4.80;97.90;;;;;;5005657;28;20838;-64
2022/04/12 01:14:13;;;;;;;6.73;2.00;;;4.80;97.80;;;;;;5010786;28;20205;-65
2022/04/12 01:16:39;;;;;;;4.80;2.00;;;4.70;97.80;;;;;;5017073;28;20449;-65
2022/04/12 01:19:05;;;;;;;2.63;1.60;;;4.70;98.00;;;;;;5006384;28;20430;-65
2022/04/12 01:22:02;;;;;;;2.30;1.33;;;4.70;98.10;;;;;;5006177;28;20195;-65
2022/04/12 01:24:28;;;;;;;4.60;2.27;;;4.60;98.20;;;;;;4994319;28;20229;-65
2022/04/12 01:26:55;;;;;;;4.17;2.20;;;4.60;98.30;;;;;;5006939;28;20442;-64
2022/04/12 01:29:20;;;;;;;2.20;1.27;;;4.60;98.70;;;;;;5005303;28;20278;-64
2022/04/12 01:31:46;;;;;;;2.10;1.20;;;4.50;98.80;;;;;;5006847;28;21036;-66
2022/04/12 01:34:12;;;;;;;4.03;2.00;;;4.40;99.00;;;;;;5014583;28;20253;-64
2022/04/12 01:36:37;;;;;;;5.20;2.10;;;4.40;99.30;;;;;;5006938;28;20870;-63
2022/04/12 01:39:03;;;;;;;2.80;1.40;;;4.30;99.30;;;;;;5006327;28;20627;-63
2022/04/12 01:41:29;;;;;;;4.00;1.77;;;4.30;99.10;;;;;;5016213;28;20723;-62
2022/04/12 01:43:55;;;;;;;4.70;1.80;;;4.30;99.30;;;;;;5006184;28;20194;-64
2022/04/12 01:46:21;;;;;;;5.10;2.30;;;4.20;99.40;;;;;;5006561;28;21123;-64
2022/04/12 01:48:48;;;;;;;6.47;2.37;;;4.20;99.90;;;;;;4996747;28;20199;-65
2022/04/12 01:51:14;;;;;;;5.70;2.43;;;4.20;99.90;;;;;;5006122;28;20402;-64
2022/04/12 01:53:39;;;;;;;4.57;1.80;;;4.20;99.90;;;;;;5005606;28;20548;-63
2022/04/12 01:56:05;;;;;;;4.53;1.93;;;4.20;99.90;;;;;;5006130;28;20772;-62
2022/04/12 01:58:32;;;;;;;3.40;1.70;;;4.20;99.90;;;;;;5002238;28;20191;-64
2022/04/12 02:00:59;;;;;;;7.60;2.17;;;4.10;99.90;;;;;;5008061;28;20191;-63
2022/04/12 02:03:24;;;;;;;3.70;2.40;;;4.10;99.90;;;;;;5017964;28;20499;-64
2022/04/12 02:05:51;;;;;;;6.27;2.93;;;4.10;99.90;;;;;;5006326;28;20485;-64
2022/04/12 02:08:20;;;;;;;3.47;1.93;;;4.00;99.90;;;;;;4987950;28;20556;-65
2022/04/12 02:10:45;;;;;;;8.00;2.67;;;4.00;99.90;;;;;;5006102;28;20434;-65
2022/04/12 02:13:11;;;;;;;5.83;2.60;;;4.00;99.90;;;;;;5005821;28;20481;-63
2022/04/12 02:15:36;;;;;;;4.90;1.73;;;3.90;99.90;;;;;;5006016;28;20377;-64
2022/04/12 02:18:02;;;;;;;4.43;2.63;;;3.80;99.90;;;;;;5006103;28;21071;-65
2022/04/12 02:20:28;;;;;;;3.80;2.73;;;3.80;99.90;;;;;;4992386;28;20773;-64
2022/04/12 02:22:53;;;;;;;5.43;2.80;;;3.80;99.90;;;;;;5010183;28;20186;-64
2022/04/12 02:25:19;;;;;;;5.97;2.73;;;3.80;99.90;;;;;;5018812;28;20264;-64
2022/04/12 02:27:45;;;;;;;4.57;2.70;;;3.80;99.90;;;;;;5013699;28;20252;-64
2022/04/12 02:30:13;;;;;;;9.70;3.93;;;3.80;99.90;;;;;;5005275;28;20205;-64
2022/04/12 02:32:39;;;;;;;5.97;2.60;;;3.80;99.90;;;;;;5008771;28;20465;-64
2022/04/12 02:35:06;;;;;;;6.80;2.50;;;3.80;99.90;;;;;;5017374;28;20449;-64
2022/04/12 02:37:31;;;;;;;6.60;2.30;;;3.70;99.90;;;;;;5016472;28;20437;-64
2022/04/12 02:39:57;;;;;;;9.30;3.07;;;3.70;99.90;;;;;;5018492;28;20866;-64
2022/04/12 02:42:23;;;;;;;4.60;2.30;;;3.70;99.90;;;;;;5019148;28;20293;-63
2022/04/12 02:44:48;;;;;;;4.93;2.40;;;3.70;99.90;;;;;;5018454;28;20823;-65
2022/04/12 02:47:14;;;;;;;5.67;2.40;;;3.60;99.90;;;;;;5017577;28;20241;-65
2022/04/12 02:49:39;;;;;;;8.73;2.43;;;3.60;99.90;;;;;;5019388;28;20213;-63
2022/04/12 02:52:05;;;;;;;5.60;3.07;;;3.60;99.90;;;;;;5016945;28;20219;-66
2022/04/12 02:54:31;;;;;;;5.97;2.80;;;3.60;99.90;;;;;;5011913;28;20277;-66
2022/04/12 02:56:57;;;;;;;6.60;2.50;;;3.50;99.90;;;;;;5018544;28;21168;-65
2022/04/12 02:59:23;;;;;;;8.57;2.30;;;3.50;99.90;;;;;;5013928;28;20209;-65
2022/04/12 03:01:49;;;;;;;4.10;2.03;;;3.50;99.90;;;;;;5013908;28;20453;-65
2022/04/12 03:04:15;;;;;;;5.37;3.17;;;3.40;99.90;;;;;;5011962;28;20465;-64
2022/04/12 03:06:41;;;;;;;4.03;2.60;;;3.40;99.90;;;;;;5010417;28;20514;-65
2022/04/12 03:09:06;;;;;;;5.93;2.57;;;3.40;99.90;;;;;;5015253;28;20626;-66
2022/04/12 03:11:32;;;;;;;4.77;2.83;;;3.40;99.90;;;;;;5008598;28;20218;-65
2022/04/12 03:13:58;;;;;;;9.67;3.10;;;3.30;99.90;;;;;;5017290;28;20208;-65
2022/04/12 03:16:23;;;;;;;5.90;2.87;;;3.30;99.90;;;;;;5012042;28;20183;-66
2022/04/12 03:18:49;;;;;;;5.13;2.23;;;3.30;99.90;;;;;;5015153;28;20224;-65
2022/04/12 03:21:14;;;;;;;3.60;2.00;;;3.30;99.90;;;;;;5015386;28;20245;-66
2022/04/12 03:23:40;;;;;;;9.77;3.50;;;3.30;99.90;;;;;;5012090;28;20692;-66
2022/04/12 03:26:06;;;;;;;7.23;2.80;;;3.20;99.90;;;;;;5018176;28;20301;-65
2022/04/12 03:28:33;;;;;;;4.30;2.53;;;3.30;99.90;;;;;;5016515;28;20190;-65
2022/04/12 03:30:59;;;;;;;5.37;3.00;;;3.20;99.90;;;;;;5011819;28;20273;-65
2022/04/12 03:33:24;;;;;;;3.23;2.00;;;3.20;99.90;;;;;;5013806;28;20527;-64
2022/04/12 03:35:50;;;;;;;6.00;2.67;;;3.20;99.90;;;;;;5019776;28;20209;-66
2022/04/12 03:38:16;;;;;;;8.50;3.00;;;3.20;99.90;;;;;;5018787;28;20278;-64
2022/04/12 03:40:46;;;;;;;4.30;2.40;;;3.20;99.90;;;;;;5018483;28;20182;-63
2022/04/12 03:43:11;;;;;;;3.40;2.00;;;3.20;99.90;;;;;;5015725;28;20911;-66
2022/04/12 03:45:37;;;;;;;4.83;2.40;;;3.20;99.90;;;;;;5017912;28;20466;-64
2022/04/12 03:48:03;;;;;;;3.77;2.30;;;3.20;99.90;;;;;;5017972;28;20198;-63
2022/04/12 03:50:30;;;;;;;4.67;2.77;;;3.20;99.90;;;;;;5020311;28;20182;-66
2022/04/12 03:52:56;;;;;;;5.73;2.67;;;3.20;99.90;;;;;;5016984;28;20838;-65
2022/04/12 03:55:31;;;;;;;6.30;3.00;;;3.10;99.90;;;;;;5020654;28;20975;-66
2022/04/12 03:58:02;;;;;;;7.37;3.17;;;3.10;99.90;;;;;;5020641;28;20231;-65
2022/04/12 04:00:28;;;;;;;11.17;3.90;;;3.10;99.90;;;;;;5022756;28;20512;-66
2022/04/12 04:02:55;;;;;;;10.97;4.13;;;3.10;99.90;;;;;;5015369;28;20426;-65
2022/04/12 04:05:21;;;;;;;10.87;4.33;;;3.10;99.90;;;;;;5021791;28;20453;-65
2022/04/12 04:07:47;;;;;;;5.97;3.27;;;3.10;99.90;;;;;;5015608;28;20799;-65
2022/04/12 04:10:13;;;;;;;5.77;3.00;;;3.00;99.90;;;;;;5021183;28;20425;-64
2022/04/12 04:12:38;;;;;;;12.03;4.33;;;3.00;99.90;;;;;;5015359;28;20223;-62
2022/04/12 04:15:11;;;;;;;8.20;3.60;;;3.00;99.90;;;;;;5003595;28;20207;-63
2022/04/12 04:17:41;;;;;;;7.23;2.70;;;2.90;99.90;;;;;;5017327;28;20191;-65
2022/04/12 04:20:07;;;;;;;6.20;2.80;;;2.90;99.90;;;;;;5009230;28;20440;-63
2022/04/12 04:22:33;;;;;;;6.93;2.90;;;2.90;99.90;;;;;;5004393;28;20524;-65
2022/04/12 04:24:58;;;;;;;8.17;3.30;;;2.80;99.90;;;;;;5016972;28;20611;-65
2022/04/12 04:27:28;;;;;;;5.83;3.13;;;2.70;99.90;;;;;;5009590;28;20187;-62
2022/04/12 04:29:55;;;;;;;6.43;2.77;;;2.80;99.90;;;;;;5011459;28;20182;-64
2022/04/12 04:32:22;;;;;;;4.10;2.33;;;2.80;99.90;;;;;;5011627;28;20556;-65
2022/04/12 04:34:47;;;;;;;4.90;3.00;;;2.80;99.90;;;;;;5010352;28;20475;-65
2022/04/12 04:37:13;;;;;;;4.47;2.83;;;2.80;99.90;;;;;;5010226;28;20917;-64
2022/04/12 04:39:38;;;;;;;6.03;2.90;;;2.80;99.90;;;;;;5008624;28;20981;-64
2022/04/12 04:42:05;;;;;;;4.07;2.10;;;2.80;99.90;;;;;;5006801;28;20198;-64
2022/04/12 04:44:31;;;;;;;6.83;2.03;;;2.80;99.90;;;;;;5009110;28;20243;-63
2022/04/12 04:46:57;;;;;;;4.63;1.90;;;2.80;99.90;;;;;;5007514;28;20573;-64
2022/04/12 04:49:23;;;;;;;5.47;2.60;;;2.80;99.90;;;;;;5007602;28;20536;-64
2022/04/12 04:51:48;;;;;;;3.13;1.90;;;2.90;99.90;;;;;;5015714;28;20234;-62
2022/04/12 04:54:14;;;;;;;7.47;2.07;;;2.90;99.90;;;;;;5000842;28;20207;-65
2022/04/12 04:56:40;;;;;;;3.30;1.83;;;2.90;99.90;;;;;;5012733;28;20186;-62
2022/04/12 04:59:06;;;;;;;13.23;1.60;;;2.90;99.90;;;;;;5014274;28;20672;-63
2022/04/12 05:01:31;;;;;;;8.50;2.20;;;2.80;99.90;;;;;;5012282;28;20778;-67
2022/04/12 05:03:57;;;;;;;4.23;1.80;;;2.80;99.90;;;;;;5011447;28;20819;-65
2022/04/12 05:06:23;;;;;;;4.40;2.50;;;2.80;99.90;;;;;;5010960;28;20249;-64
2022/04/12 05:08:48;;;;;;;3.80;1.80;;;2.80;99.90;;;;;;5015981;28;20273;-67
2022/04/12 05:11:14;;;;;;;2.83;1.37;;;2.80;99.90;;;;;;5010700;28;20671;-66
2022/04/12 05:13:40;;;;;;;5.90;2.20;;;2.90;99.90;;;;;;5012266;28;20427;-66
2022/04/12 05:16:05;;;;;;;5.73;2.57;;;2.90;99.90;;;;;;5019453;28;20217;-67
2022/04/12 05:18:31;;;;;;;7.60;2.40;;;2.90;99.90;;;;;;5021482;28;20186;-67
2022/04/12 05:20:57;;;;;;;4.47;2.10;;;3.00;99.90;;;;;;5024248;28;20248;-65
2022/04/12 05:23:22;;;;;;;4.90;2.33;;;3.00;99.90;;;;;;5018855;28;20221;-67
2022/04/12 05:25:48;;;;;;;9.33;2.97;;;3.00;99.90;;;;;;5022683;28;20241;-66
2022/04/12 05:28:14;;;;;;;3.43;1.50;;;3.00;99.90;;;;;;5014249;28;20262;-63
2022/04/12 05:30:39;;;;;;;3.87;2.80;;;3.10;99.90;;;;;;5010549;28;20187;-62
2022/04/12 05:33:05;;;;;;;10.37;2.53;;;3.10;99.90;;;;;;5017866;28;20214;-64
2022/04/12 05:35:31;;;;;;;3.53;1.70;;;3.10;99.90;;;;;;5014478;28;20203;-65
2022/04/12 05:37:58;;;;;;;4.77;1.90;;;3.20;99.90;;;;;;5015764;28;20207;-64
2022/04/12 05:40:24;;;;;;;3.17;1.77;;;3.10;99.90;;;;;;5013172;28;20713;-65
2022/04/12 05:42:53;;;;;;;6.93;2.20;;;3.20;99.90;;;;;;5020243;28;20415;-64
2022/04/12 05:45:19;;;;;;;4.93;2.30;;;3.30;99.90;;;;;;5018873;28;20210;-64
2022/04/12 05:47:46;;;;;;;4.77;2.03;;;3.40;99.90;;;;;;5013940;28;20425;-67
2022/04/12 05:50:14;;;;;;;3.73;2.00;;;3.40;99.90;;;;;;5016787;28;20189;-65
2022/04/12 05:52:40;;;;;;;3.73;2.07;;;3.50;99.90;;;;;;5024353;28;20470;-64
2022/04/12 05:55:07;;;;;;;3.90;2.10;;;3.60;99.90;;;;;;5025318;28;20437;-64
2022/04/12 05:57:36;;;;;;;5.17;2.50;;;3.80;99.90;;;;;;5023472;28;20177;-65
2022/04/12 06:00:02;;;;;;;5.97;3.03;;;3.90;99.90;;;;;;5021881;28;20819;-66
2022/04/12 06:02:28;;;;;;;4.33;2.43;;;4.00;99.90;;;;;;5019195;28;20522;-66
2022/04/12 06:04:54;;;;;;;6.67;2.03;;;4.20;99.90;;;;;;5019591;28;20532;-66
2022/04/12 06:07:19;;;;;;;3.53;2.40;;;4.30;99.90;;;;;;5021042;28;20190;-65
2022/04/12 06:09:45;;;;;;;25.70;2.63;;;4.50;99.90;;;;;;5015939;28;20186;-65
2022/04/12 06:12:10;;;;;;;4.13;2.43;;;4.60;99.90;;;;;;5020463;28;20354;-65
2022/04/12 06:14:36;;;;;;;8.53;2.83;;;4.70;99.90;;;;;;5015894;28;20195;-67
2022/04/12 06:17:02;;;;;;;4.90;1.93;;;4.90;99.90;;;;;;5019915;28;20190;-66
2022/04/12 06:19:27;;;;;;;4.70;2.43;;;5.10;99.90;;;;;;5014335;28;20194;-65
2022/04/12 06:21:53;;;;;;;3.93;1.80;;;5.30;99.90;;;;;;5019129;28;20198;-65
2022/04/12 06:24:19;;;;;;;4.50;2.33;;;5.40;99.90;;;;;;5007380;28;20206;-64
2022/04/12 06:26:44;;;;;;;7.00;2.83;;;5.70;99.90;;;;;;5018787;28;20205;-66
2022/04/12 06:29:10;;;;;;;7.40;3.10;;;5.90;99.90;;;;;;5009249;28;20199;-62
2022/04/12 06:31:35;;;;;;;4.03;2.47;;;6.20;99.90;;;;;;5017672;28;20840;-64
2022/04/12 06:34:01;;;;;;;9.60;3.07;;;6.30;99.90;;;;;;5009536;28;20233;-66
2022/04/12 06:36:26;;;;;;;9.00;2.20;;;6.40;99.90;;;;;;5011643;28;20187;-65
2022/04/12 06:38:53;;;;;;;7.60;2.40;;;6.70;99.90;;;;;;5009329;28;20761;-65
2022/04/12 06:41:19;;;;;;;5.80;2.77;;;7.00;99.90;;;;;;5006759;28;20298;-67
2022/04/12 06:43:44;;;;;;;8.10;2.20;;;7.30;99.90;;;;;;5015401;28;20539;-66
2022/04/12 06:46:10;;;;;;;4.20;2.60;;;7.70;99.90;;;;;;4999290;28;20194;-65
2022/04/12 06:48:36;;;;;;;4.33;2.53;;;8.00;99.90;;;;;;5012584;28;20595;-65
2022/04/12 06:51:01;;;;;;;4.43;2.77;;;8.20;99.90;;;;;;5019814;28;20182;-65
2022/04/12 06:53:28;;;;;;;8.83;2.30;;;8.40;99.90;;;;;;5013523;28;20223;-63
2022/04/12 06:55:54;;;;;;;4.97;2.43;;;8.70;99.40;;;;;;5019149;28;20221;-65
2022/04/12 06:58:19;;;;;;;3.60;2.03;;;9.00;98.80;;;;;;5012711;28;20468;-63
2022/04/12 07:00:45;;;;;;;5.80;2.27;;;9.30;97.40;;;;;;5018249;28;20713;-65
2022/04/12 07:03:11;;;;;;;3.13;2.10;;;9.50;95.90;;;;;;5014766;28;20183;-64
2022/04/12 07:05:36;;;;;;;3.87;1.97;;;9.70;95.10;;;;;;5017702;28;20218;-65
2022/04/12 07:08:02;;;;;;;5.10;2.30;;;9.90;94.50;;;;;;5010391;28;20646;-65
2022/04/12 07:10:28;;;;;;;6.70;2.73;;;10.10;93.40;;;;;;5022219;28;20244;-65
2022/04/12 07:12:53;;;;;;;11.33;2.50;;;10.40;92.90;;;;;;5019864;28;20850;-65
2022/04/12 07:15:20;;;;;;;5.00;2.10;;;10.90;92.10;;;;;;5023329;28;20220;-65
2022/04/12 07:17:46;;;;;;;3.50;1.70;;;11.30;92.00;;;;;;5022629;28;20617;-65
2022/04/12 07:20:12;;;;;;;7.17;2.47;;;11.70;88.10;;;;;;5019708;28;20459;-66
2022/04/12 07:22:38;;;;;;;5.47;2.17;;;11.90;84.40;;;;;;5019254;28;20689;-66
2022/04/12 07:25:04;;;;;;;2.57;1.70;;;12.10;83.10;;;;;;5021788;28;20455;-66
2022/04/12 07:27:36;;;;;;;9.70;2.07;;;12.40;84.30;;;;;;5019504;28;20198;-66
2022/04/12 07:30:07;;;;;;;5.03;2.13;;;12.90;84.00;;;;;;5020038;28;20478;-65
2022/04/12 07:32:33;;;;;;;5.40;1.90;;;13.40;80.50;;;;;;5019056;28;20564;-67
2022/04/12 07:34:58;;;;;;;4.43;2.00;;;14.00;79.10;;;;;;5018122;28;20907;-64
2022/04/12 07:37:24;;;;;;;4.50;2.20;;;14.10;76.80;;;;;;5011425;28;20243;-64
2022/04/12 07:39:50;;;;;;;4.20;2.70;;;14.70;76.00;;;;;;5018637;28;20279;-66
2022/04/12 07:42:16;;;;;;;8.10;1.90;;;15.30;74.30;;;;;;5016391;28;20205;-66
2022/04/12 07:44:42;;;;;;;4.77;1.50;;;15.80;73.60;;;;;;5018911;28;20825;-65
2022/04/12 07:47:08;;;;;;;3.80;1.90;;;15.80;75.30;;;;;;5015827;28;20464;-66
2022/04/12 07:49:34;;;;;;;2.97;1.73;;;16.30;73.60;;;;;;5011601;28;20458;-65
2022/04/12 07:51:59;;;;;;;6.83;2.20;;;16.70;73.00;;;;;;5012926;28;20452;-66
2022/04/12 07:54:25;;;;;;;5.67;2.10;;;17.00;73.30;;;;;;5008790;28;20195;-65
2022/04/12 07:56:51;;;;;;;5.10;1.97;;;16.70;72.40;;;;;;5003575;28;21031;-65
2022/04/12 07:59:17;;;;;;;4.77;2.43;;;17.00;71.10;;;;;;5010651;28;20262;-66
2022/04/12 08:01:43;;;;;;;5.23;1.60;;;17.30;69.60;;;;;;5022206;28;21272;-66
2022/04/12 08:04:09;;;;;;;3.63;1.70;;;18.10;68.40;;;;;;5019612;28;20206;-66
2022/04/12 08:06:35;;;;;;;5.10;3.03;;;17.90;70.60;;;;;;5014052;28;20185;-66
2022/04/12 08:09:00;;;;;;;4.13;2.10;;;18.50;69.50;;;;;;5018281;28;20474;-66
2022/04/12 08:11:26;;;;;;;2.77;1.37;;;18.90;66.90;;;;;;5019303;28;20281;-67
2022/04/12 08:13:53;;;;;;;4.60;2.20;;;19.00;66.10;;;;;;5019058;28;20190;-66
2022/04/12 08:16:19;;;;;;;3.10;2.03;;;18.90;64.50;;;;;;5017720;28;20661;-66
2022/04/12 08:18:44;;;;;;;3.30;1.57;;;18.50;64.10;;;;;;5017277;28;20428;-66
2022/04/12 08:21:10;;;;;;;2.57;1.30;;;18.50;66.20;;;;;;5018012;28;20185;-67
2022/04/12 08:23:36;;;;;;;5.47;2.00;;;18.50;64.70;;;;;;5016908;28;20904;-66
2022/04/12 08:26:01;;;;;;;5.77;2.30;;;18.80;64.00;;;;;;5017029;28;20763;-65
2022/04/12 08:28:27;;;;;;;4.97;2.07;;;19.00;63.10;;;;;;5018185;28;20309;-65
2022/04/12 08:30:53;;;;;;;2.10;1.10;;;18.20;64.90;;;;;;5016224;28;20708;-67
2022/04/12 08:33:18;;;;;;;4.87;2.23;;;18.50;65.10;;;;;;5019194;28;20205;-66
2022/04/12 08:35:44;;;;;;;3.67;1.80;;;19.00;64.50;;;;;;5015077;28;20209;-66
2022/04/12 08:38:10;;;;;;;3.60;1.60;;;18.90;65.10;;;;;;5019271;28;20307;-66
2022/04/12 08:40:36;;;;;;;8.60;1.80;;;18.80;65.50;;;;;;5025795;28;20194;-66
2022/04/12 08:43:02;;;;;;;5.33;1.50;;;19.20;64.80;;;;;;5025115;28;20251;-65
2022/04/12 08:45:28;;;;;;;5.13;2.33;;;19.50;63.60;;;;;;5025327;28;20214;-65
2022/04/12 08:47:53;;;;;;;5.03;2.10;;;19.90;63.10;;;;;;5023890;28;20436;-65
2022/04/12 08:50:21;;;;;;;3.53;1.87;;;19.50;63.30;;;;;;5023918;28;20269;-66
2022/04/12 08:52:47;;;;;;;3.50;1.90;;;18.80;64.80;;;;;;5022933;28;20252;-66
2022/04/12 08:55:13;;;;;;;3.00;1.47;;;18.90;63.60;;;;;;5023829;28;21192;-66
2022/04/12 08:57:39;;;;;;;4.30;1.80;;;19.10;63.40;;;;;;5021845;28;20408;-65
2022/04/12 09:00:06;;;;;;;7.33;1.53;;;18.60;63.60;;;;;;5021414;28;21106;-65
2022/04/12 09:02:32;;;;;;;6.73;1.63;;;18.40;64.70;;;;;;5022119;28;20740;-65
2022/04/12 09:04:58;;;;;;;2.30;1.20;;;18.00;65.90;;;;;;5019978;28;20999;-65
2022/04/12 09:07:26;;;;;;;3.80;1.57;;;17.80;66.20;;;;;;5021267;28;20421;-64
2022/04/12 09:10:01;;;;;;;3.77;1.20;;;17.70;66.50;;;;;;5019535;28;20502;-66
2022/04/12 09:12:32;;;;;;;2.20;0.87;;;17.60;66.70;;;;;;5019327;28;21298;-66
2022/04/12 09:14:58;;;;;;;4.53;1.20;;;17.80;66.80;;;;;;5021026;28;20823;-65
2022/04/12 09:17:38;;;;;;;2.47;0.90;;;18.10;64.80;;;;;;5018922;28;20428;-66
2022/04/12 09:20:10;;;;;;;2.53;1.03;;;18.40;67.50;;;;;;5020699;28;20598;-66
2022/04/12 09:22:37;;;;;;;4.90;1.00;;;18.70;65.00;;;;;;5015468;28;21155;-65
2022/04/12 09:25:04;;;;;;;2.80;1.43;;;18.90;59.20;;;;;;5014755;28;20531;-66
2022/04/12 09:27:32;;;;;;;3.93;1.03;;;19.30;58.10;;;;;;5010187;28;20940;-65
2022/04/12 09:30:01;;;;;;;2.57;1.00;;;19.50;56.30;;;;;;5018556;28;20439;-65
2022/04/12 09:32:35;;;;;;;2.40;1.17;;;19.80;56.20;;;;;;5012206;28;20461;-65
2022/04/12 09:35:01;;;;;;;3.70;1.10;;;20.20;55.20;;;;;;5018355;28;20479;-66
2022/04/12 09:37:32;;;;;;;2.20;1.10;;;20.40;57.10;;;;;;5012741;28;20417;-66
2022/04/12 09:40:00;;;;;;;2.37;1.03;;;20.60;56.90;;;;;;5024134;28;20225;-66
2022/04/12 09:42:51;;;;;;;3.97;1.23;;;20.40;57.30;;;;;;5024697;28;20440;-64
2022/04/12 09:45:22;;;;;;;1.70;0.67;;;20.50;55.90;;;;;;5023951;28;20539;-66
2022/04/12 09:47:50;;;;;;;2.60;1.00;;;20.30;57.20;;;;;;5024640;28;20452;-66
2022/04/12 09:50:19;;;;;;;5.77;1.03;;;20.70;56.60;;;;;;5019177;28;20425;-66
2022/04/12 09:52:53;;;;;;;2.03;0.90;;;20.60;56.10;;;;;;5023512;28;20460;-65
2022/04/12 09:55:40;;;;;;;5.80;1.60;;;20.40;55.90;;;;;;5022201;28;20438;-66
2022/04/12 09:58:08;;;;;;;2.30;0.90;;;20.20;53.90;;;;;;5020607;28;21156;-65
2022/04/12 10:00:35;;;;;;;2.17;1.10;;;20.00;54.60;;;;;;5003055;28;20429;-64
2022/04/12 10:03:04;;;;;;;1.60;0.80;;;19.80;54.20;;;;;;5012319;28;20472;-65
2022/04/12 10:05:30;;;;;;;2.13;0.80;;;19.60;56.10;;;;;;5010842;28;20442;-65
2022/04/12 10:07:58;;;;;;;2.80;1.07;;;19.50;55.20;;;;;;5005494;28;20965;-65
2022/04/12 10:10:27;;;;;;;3.70;0.90;;;19.00;54.00;;;;;;5005644;28;20937;-65
2022/04/12 10:12:55;;;;;;;7.07;1.23;;;19.20;56.80;;;;;;5005959;28;20921;-65
2022/04/12 10:15:21;;;;;;;2.37;0.90;;;19.40;58.80;;;;;;5006062;28;20442;-65
2022/04/12 10:17:48;;;;;;;5.37;1.30;;;19.60;59.00;;;;;;5006221;28;20418;-65
2022/04/12 10:20:15;;;;;;;2.27;0.90;;;19.80;56.60;;;;;;5005354;28;20484;-65
2022/04/12 10:22:41;;;;;;;2.43;0.90;;;19.50;55.20;;;;;;5005418;28;21261;-66
2022/04/12 10:25:09;;;;;;;2.07;0.97;;;19.50;55.60;;;;;;5005971;28;21238;-65
2022/04/12 10:27:36;;;;;;;2.70;0.70;;;19.30;55.90;;;;;;5006274;28;20940;-65
2022/04/12 10:30:25;;;;;;;3.10;0.90;;;19.10;54.70;;;;;;5004348;28;21253;-65
2022/04/12 10:33:26;;;;;;;4.57;0.90;;;19.10;54.90;;;;;;5006051;28;20461;-65
2022/04/12 10:35:55;;;;;;;3.73;0.90;;;19.20;56.40;;;;;;4996673;28;20472;-66
2022/04/12 10:38:25;;;;;;;2.50;1.17;;;19.40;57.80;;;;;;5004875;28;20505;-65
2022/04/12 10:40:56;;;;;;;4.63;0.90;;;19.50;54.90;;;;;;5018951;28;21164;-65
2022/04/12 10:43:30;;;;;;;1.70;0.90;;;19.50;55.70;;;;;;5014655;28;20437;-65
2022/04/12 10:45:57;;;;;;;1.77;0.70;;;19.60;55.10;;;;;;5006044;28;20531;-66
2022/04/12 10:48:26;;;;;;;1.50;0.70;;;19.70;56.10;;;;;;5005074;28;20448;-65
2022/04/12 10:50:56;;;;;;;2.17;0.97;;;19.90;55.10;;;;;;5006047;28;20801;-65
2022/04/12 10:53:40;;;;;;;1.93;0.77;;;20.20;56.10;;;;;;5005348;28;20477;-65
2022/04/12 10:56:08;;;;;;;3.60;1.13;;;20.20;53.50;;;;;;5005649;28;20869;-64
2022/04/12 10:58:34;;;;;;;2.90;1.20;;;20.10;52.00;;;;;;5005088;28;20430;-65
2022/04/12 11:01:01;;;;;;;2.77;1.00;;;20.10;52.20;;;;;;5005462;28;20422;-65
2022/04/12 11:03:45;;;;;;;1.70;0.90;;;20.20;52.40;;;;;;5016921;28;20941;-66
2022/04/12 11:06:10;;;;;;;1.70;0.70;;;20.40;52.40;;;;;;5002646;28;20516;-65
2022/04/12 11:08:36;;;;;;;3.87;1.47;;;20.60;52.20;;;;;;5004620;28;20449;-65
2022/04/12 11:11:03;;;;;;;1.40;0.60;;;20.70;52.90;;;;;;5013443;28;20233;-65
2022/04/12 11:13:33;;;;;;;2.13;0.83;;;20.90;54.40;;;;;;5009307;28;20229;-63
2022/04/12 11:16:00;;;;;;;2.03;0.90;;;21.00;53.30;;;;;;5005329;28;20467;-63
2022/04/12 11:18:52;;;;;;;1.67;0.77;;;21.10;52.10;;;;;;5004608;28;20473;-63
2022/04/12 11:21:19;;;;;;;1.80;0.80;;;21.30;51.70;;;;;;4992943;28;20414;-63
2022/04/12 11:23:50;;;;;;;6.20;0.87;;;21.20;52.70;;;;;;5009694;28;20424;-65
2022/04/12 11:26:43;;;;;;;2.93;1.20;;;21.20;51.70;;;;;;5005489;28;20431;-65
2022/04/12 11:29:12;;;;;;;3.93;1.10;;;21.40;54.70;;;;;;5006505;28;20516;-65
2022/04/12 11:31:47;;;;;;;2.70;1.00;;;21.30;49.90;;;;;;5001306;28;21007;-65
2022/04/12 11:34:14;;;;;;;1.87;0.73;;;20.90;51.50;;;;;;5005633;28;20443;-65
2022/04/12 11:36:45;;;;;;;3.03;1.13;;;21.20;52.90;;;;;;5008881;28;20984;-66
2022/04/12 11:39:15;;;;;;;2.30;1.00;;;21.20;52.00;;;;;;4991102;28;20442;-65
2022/04/12 11:41:40;;;;;;;1.40;0.70;;;20.90;51.70;;;;;;5007705;28;20432;-65
2022/04/12 11:44:06;;;;;;;2.17;0.90;;;20.80;52.80;;;;;;5005126;28;20429;-65
2022/04/12 11:46:33;;;;;;;1.80;0.60;;;20.90;53.20;;;;;;5004432;28;20202;-66
2022/04/12 11:49:10;;;;;;;2.00;0.80;;;20.80;52.30;;;;;;5003402;28;20197;-65
2022/04/12 11:51:38;;;;;;;3.73;0.80;;;20.70;53.00;;;;;;5003942;28;20425;-65
2022/04/12 11:54:24;;;;;;;1.70;0.80;;;20.70;52.60;;;;;;5003534;28;20967;-65
2022/04/12 11:57:22;;;;;;;2.87;0.90;;;20.90;52.60;;;;;;5007074;28;20955;-65
2022/04/12 11:59:53;;;;;;;2.00;0.90;;;21.00;53.10;;;;;;5002331;28;20533;-65
2022/04/12 12:02:21;;;;;;;7.57;1.00;;;21.00;52.80;;;;;;5017769;28;20436;-65
2022/04/12 12:04:52;;;;;;;1.83;0.90;;;21.10;53.50;;;;;;5017993;28;20440;-66
2022/04/12 12:07:18;;;;;;;5.00;0.97;;;21.30;53.10;;;;;;5014287;28;20955;-65
2022/04/12 12:09:56;;;;;;;2.17;0.90;;;21.30;52.00;;;;;;5012833;28;20436;-65
2022/04/12 12:12:31;;;;;;;3.20;1.10;;;21.40;52.50;;;;;;5006968;28;20469;-64
2022/04/12 12:14:57;;;;;;;2.90;0.90;;;21.50;53.00;;;;;;5007311;28;20468;-65
2022/04/12 12:17:25;;;;;;;3.10;1.03;;;21.50;52.50;;;;;;5007242;28;20835;-65
2022/04/12 12:19:50;;;;;;;2.50;0.90;;;21.50;51.70;;;;;;5022517;28;20301;-65
2022/04/12 12:22:17;;;;;;;2.80;0.90;;;21.40;50.20;;;;;;5017592;28;20980;-65
2022/04/12 12:24:58;;;;;;;1.50;0.70;;;21.50;51.70;;;;;;5006715;28;20210;-65
2022/04/12 12:27:32;;;;;;;2.03;0.93;;;21.20;51.20;;;;;;5007232;28;20457;-65
2022/04/12 12:30:00;;;;;;;6.83;1.17;;;21.20;50.90;;;;;;5005692;28;20461;-65
2022/04/12 12:32:31;;;;;;;1.70;0.90;;;21.20;51.50;;;;;;4993851;28;20453;-65
2022/04/12 12:35:02;;;;;;;2.13;0.90;;;21.20;52.70;;;;;;5008412;28;20456;-64
2022/04/12 12:37:27;;;;;;;2.10;0.80;;;21.20;52.30;;;;;;5006643;28;20433;-64
2022/04/12 12:39:53;;;;;;;2.13;1.00;;;21.20;53.20;;;;;;5006271;28;20540;-65
2022/04/12 12:42:21;;;;;;;1.67;0.80;;;21.20;52.70;;;;;;5006712;28;20558;-65
2022/04/12 12:44:47;;;;;;;2.17;0.80;;;21.20;52.50;;;;;;5006922;28;20203;-65
2022/04/12 12:47:12;;;;;;;1.97;1.17;;;21.20;52.50;;;;;;4971179;28;1135092;-65
2022/04/12 12:49:40;;;;;;;2.10;0.70;;;21.30;53.80;;;;;;5006991;28;20560;-64
2022/04/12 12:52:11;;;;;;;1.60;0.67;;;21.50;52.50;;;;;;5010286;28;20218;-64
2022/04/12 12:54:38;;;;;;;1.50;0.67;;;21.60;51.40;;;;;;5011865;28;20555;-65
2022/04/12 12:57:06;;;;;;;2.70;0.93;;;21.80;53.30;;;;;;5007261;28;20548;-63